Baptistown, NJ

9:40 PM EDT on April 20, 2015 (GMT -0400)
Doylestown | | Change Station
CLOSE
Current Station
Airport
Location: Doylestown,
Elevation: 394 ft
Nearby Weather Stations
Active Advisory: Severe Thunderstorm Watch Active Notice: Record Report

Elev 394 ft 40.33 °N, 75.12 °W | Updated 46 minutes ago

Overcast
Overcast
59 °F
Feels Like 59 °F
N
4
Wind Variable Wind from Variable

Today
High -- | Low -- °F
--% Chance of Precip.
Yesterday
High -- | Low -- °F
Precip. -- in
6:14 AM 7:44 PM
Waxing Crescent, 7% visible
Pressure 29.59 in
Visibility 6.0 miles
Clouds Overcast 300 ft
Dew Point 59 °F
Humidity 100%
Rainfall 1.38 in
Snow Depth Not available.
UV 0 out of 12
Pollen 1.10 out of 12
Air Quality Not available.
Flu Activity Regional
METAR KDYL 210054Z AUTO VRB03KT 6SM -RA BR OVC003 15/15 A2958 RMK AO2 LTG DSNT W RAB28 SLP018 P0001 T01500150

More Conditions Fewer Conditions

Pressure 29.59 in
Visibility 6.0 miles
Clouds Overcast 300 ft
Dew Point 59 °F
Humidity 100%
Rainfall 1.38 in
Snow Depth Not available.
UV 0 out of 12
Pollen 1.10 out of 12
Air Quality Not available.
Flu Activity Regional
METAR KDYL 210054Z AUTO VRB03KT 6SM -RA BR OVC003 15/15 A2958 RMK AO2 LTG DSNT W RAB28 SLP018 P0001 T01500150

More Conditions Fewer Conditions

10-Day Weather Forecast

Almanac

Astronomy

Apr. 20, 2015 Rise Set
Actual Time
Civil Twilight
Nautical Twilight
Astronomical Twilight
Moon
Length of Visible Light
Length of Day
Tomorrow will be .
, % of the Moon is Illuminated

Today's Extremes

State Highs State Lows

Community

WunderPhotos

Upload Photos

1,815,276 photos uploaded!

WunderBlogs® & News

Nearby

Air Quality

  Air Quality AQ Index Pollutant
Not available.

Snow Depth

Station Depth Elevation

Earthquake Activity

City Distance Mag. Time & Date
Minimum magnitude displayed is 2.5.

Coastal Water Temperatures

Place Temperature

Stations

Nearby Weather Stations

Station Location Temp. Windchill Dew Point Humidity Wind Precip. Elev Updated Type
                   
Severe Thunderstorm Watch
Statement as of 9:24 PM EDT on April 20, 2015

Severe Thunderstorm Watch 92 remains in effect until 100 am EDT
for the following locations


NJ
. New Jersey counties included are

Hunterdon Mercer Morris
Somerset Sussex Warren